createdAt,value
2022-10-13T00:04:31.475Z,27.83
2022-10-13T00:09:33.644Z,22.25
2022-10-13T00:14:35.432Z,23.25
2022-10-13T00:19:37.212Z,28.67
2022-10-13T00:24:39.013Z,24.38
2022-10-13T00:29:41.787Z,27.48
2022-10-13T00:34:43.575Z,27.15
2022-10-13T00:39:45.381Z,29.15
2022-10-13T00:45:02.557Z,22.95
2022-10-13T00:50:07.402Z,27.65
2022-10-13T00:55:10.893Z,25.52
2022-10-13T01:00:13.035Z,27.67
2022-10-13T01:05:14.896Z,25.05
2022-10-13T01:10:18.443Z,29.13
2022-10-13T01:15:34.392Z,30.00
2022-10-13T01:20:42.088Z,31.23
2022-10-13T01:25:47.021Z,24.75
2022-10-13T01:30:52.008Z,26.75
2022-10-13T01:35:56.790Z,29.00
2022-10-13T01:41:24.831Z,30.50
2022-10-13T01:46:29.376Z,29.65
2022-10-13T01:51:31.604Z,33.25
2022-10-13T01:56:33.721Z,25.97
2022-10-13T02:01:38.475Z,23.95
2022-10-13T02:06:51.964Z,23.65
2022-10-13T02:12:02.348Z,25.88
2022-10-13T02:17:08.601Z,25.00
2022-10-13T02:22:14.774Z,30.40
2022-10-13T02:27:16.563Z,24.80
2022-10-13T02:32:18.501Z,28.95
2022-10-13T02:37:20.453Z,27.15
2022-10-13T02:42:22.828Z,24.23
2022-10-13T02:47:24.896Z,29.77
2022-10-13T02:52:27.199Z,21.80
2022-10-13T02:57:29.021Z,23.60
2022-10-13T03:02:32.632Z,25.65
2022-10-13T03:07:34.428Z,25.27
2022-10-13T03:12:36.253Z,30.27
2022-10-13T03:17:38.042Z,27.10
2022-10-13T03:22:39.820Z,24.13
2022-10-13T03:27:41.613Z,29.98
2022-10-13T03:32:43.487Z,35.15
2022-10-13T03:37:45.280Z,26.52
2022-10-13T03:42:47.068Z,26.00
2022-10-13T03:47:48.852Z,39.65
2022-10-13T03:52:50.643Z,28.05
2022-10-13T03:57:52.436Z,28.67
2022-10-13T04:02:54.230Z,31.58
2022-10-13T04:07:56.018Z,31.80
2022-10-13T04:13:02.187Z,28.20
2022-10-13T04:18:04.178Z,30.05
2022-10-13T04:23:06.924Z,27.70
2022-10-13T04:28:11.750Z,27.55
2022-10-13T04:33:13.579Z,36.23
2022-10-13T04:38:15.368Z,32.55
2022-10-13T04:43:17.175Z,35.72
2022-10-13T04:48:18.972Z,32.53
2022-10-13T04:53:20.753Z,39.08
2022-10-13T04:58:22.589Z,34.88
2022-10-13T05:03:24.400Z,32.75
2022-10-13T05:08:26.191Z,39.75
2022-10-13T05:13:29.224Z,35.50
2022-10-13T05:18:32.203Z,39.53
2022-10-13T05:23:34.394Z,40.25
2022-10-13T05:28:39.227Z,37.47
2022-10-13T05:33:41.247Z,34.88
2022-10-13T05:38:43.292Z,46.25
2022-10-13T05:43:45.156Z,41.72
2022-10-13T05:48:46.931Z,40.95
2022-10-13T05:53:56.797Z,40.67
2022-10-13T05:59:01.704Z,43.70
2022-10-13T06:04:05.208Z,40.05
2022-10-13T06:09:07.024Z,40.45
2022-10-13T06:14:08.813Z,44.33
2022-10-13T06:19:10.604Z,49.95
2022-10-13T06:24:12.402Z,42.65
2022-10-13T06:29:14.190Z,49.13
2022-10-13T06:34:15.979Z,46.15
2022-10-13T06:39:19.752Z,50.47
2022-10-13T06:44:21.553Z,48.50
2022-10-13T06:49:23.555Z,49.85
2022-10-13T06:54:25.351Z,48.17
2022-10-13T06:59:27.164Z,59.63
2022-10-13T07:04:28.996Z,51.65
2022-10-13T07:09:32.848Z,51.85
2022-10-13T07:14:34.770Z,64.50
2022-10-13T07:19:36.566Z,51.63
2022-10-13T07:24:38.396Z,54.20
2022-10-13T07:29:40.177Z,41.00
2022-10-13T07:34:42.124Z,42.15
2022-10-13T07:39:43.925Z,39.45
2022-10-13T07:44:45.723Z,37.13
2022-10-13T07:49:47.500Z,34.80
2022-10-13T07:54:49.904Z,37.08
2022-10-13T07:59:51.683Z,37.97
2022-10-13T08:04:53.483Z,39.55
2022-10-13T08:09:55.300Z,42.20
2022-10-13T08:14:59.382Z,32.92
2022-10-13T08:20:04.479Z,31.27
2022-10-13T08:25:06.527Z,28.20
2022-10-13T08:30:10.804Z,34.38
2022-10-13T08:35:12.770Z,35.63
2022-10-13T08:40:20.068Z,36.40
2022-10-13T08:50:47.650Z,27.30
2022-10-13T08:55:51.645Z,30.23
2022-10-13T09:01:08.768Z,28.17
2022-10-13T09:06:13.422Z,31.35
2022-10-13T09:11:15.243Z,28.80
2022-10-13T09:16:25.647Z,29.95
2022-10-13T09:21:27.712Z,26.02
2022-10-13T09:26:30.175Z,23.63
2022-10-13T09:31:32.002Z,27.35
2022-10-13T09:36:33.836Z,32.92
2022-10-13T09:41:36.101Z,35.05
2022-10-13T09:46:44.131Z,27.33
2022-10-13T09:51:46.055Z,35.25
2022-10-13T09:56:57.824Z,33.58
2022-10-13T10:02:02.911Z,30.92
2022-10-13T10:07:13.532Z,29.75
